Time;durP1;ratioP1;P1;durP2;ratioP2;P2;SDS_P1;SDS_P2;PMS_P1;PMS_P2;Temp;Humidity;BMP_temperature;BMP_pressure;BME280_temperature;BME280_humidity;BME280_pressure;Samples;Min_cycle;Max_cycle;Signal;HPM_P1;HPM_P2
2022/06/20 00:01:28;;;;;;;12.93;3.95;;;21.10;99.90;;;;;;4990551;28;20038;-55
2022/06/20 00:03:54;;;;;;;15.32;4.10;;;21.60;99.90;;;;;;4989637;28;20034;-53
2022/06/20 00:06:23;;;;;;;15.38;4.07;;;21.60;99.90;;;;;;4989571;28;20057;-55
2022/06/20 00:08:51;;;;;;;13.02;3.63;;;21.50;99.90;;;;;;4989654;28;20031;-55
2022/06/20 00:11:43;;;;;;;12.73;3.70;;;21.80;99.90;;;;;;4978544;28;20050;-55
2022/06/20 00:14:19;;;;;;;13.50;3.88;;;21.50;99.90;;;;;;4993327;28;20026;-55
2022/06/20 00:16:45;;;;;;;12.15;3.95;;;21.70;99.90;;;;;;4990546;28;20022;-54
2022/06/20 00:19:11;;;;;;;10.88;3.70;;;21.30;99.90;;;;;;4989401;28;20032;-55
2022/06/20 00:21:38;;;;;;;11.23;3.72;;;21.70;99.90;;;;;;4989566;28;20061;-54
2022/06/20 00:24:04;;;;;;;12.77;3.53;;;21.60;99.90;;;;;;4989291;28;20023;-53
2022/06/20 00:26:30;;;;;;;13.25;3.90;;;21.30;99.90;;;;;;4993914;28;20033;-54
2022/06/20 00:28:56;;;;;;;14.68;4.32;;;20.90;99.90;;;;;;4977548;28;20039;-55
2022/06/20 00:31:22;;;;;;;14.02;4.03;;;20.80;99.90;;;;;;4989835;28;20018;-54
2022/06/20 00:33:49;;;;;;;12.15;3.47;;;20.80;99.90;;;;;;4989148;28;20034;-55
2022/06/20 00:36:15;;;;;;;14.38;3.72;;;21.20;99.90;;;;;;4990141;28;20026;-54
2022/06/20 00:38:42;;;;;;;11.55;3.45;;;21.80;99.90;;;;;;4981652;28;20077;-55
2022/06/20 00:41:17;;;;;;;15.30;4.28;;;21.50;99.90;;;;;;4977722;28;20041;-55
2022/06/20 00:43:47;;;;;;;11.45;3.70;;;21.30;99.90;;;;;;4989190;28;20538;-55
2022/06/20 00:46:37;;;;;;;13.80;3.72;;;21.20;99.90;;;;;;4989064;28;20026;-53
2022/06/20 00:49:38;;;;;;;12.30;3.90;;;21.30;99.90;;;;;;4988615;28;20104;-55
2022/06/20 00:52:10;;;;;;;12.30;3.47;;;21.00;99.90;;;;;;4928505;29;20143;-53
2022/06/20 00:54:49;;;;;;;10.55;3.65;;;21.50;99.90;;;;;;4928418;29;20043;-55
2022/06/20 00:57:44;;;;;;;13.63;3.58;;;21.60;99.90;;;;;;4928446;29;20055;-54
2022/06/20 01:00:19;;;;;;;10.20;3.33;;;21.70;99.90;;;;;;4928826;29;20111;-55
2022/06/20 01:02:53;;;;;;;10.73;3.22;;;21.50;99.90;;;;;;4929163;29;20055;-55
2022/06/20 01:05:27;;;;;;;11.20;3.50;;;21.40;99.90;;;;;;4918043;29;20073;-54
2022/06/20 01:07:59;;;;;;;11.30;4.00;;;21.30;99.90;;;;;;4933022;29;20535;-54
2022/06/20 01:10:27;;;;;;;8.60;3.70;;;21.10;99.90;;;;;;4913449;29;20067;-49
2022/06/20 01:13:00;;;;;;;13.13;3.83;;;21.70;99.90;;;;;;4928399;29;20042;-55
2022/06/20 01:15:35;;;;;;;13.50;3.73;;;21.30;99.90;;;;;;4928523;29;20043;-55
2022/06/20 01:18:03;;;;;;;11.63;3.40;;;21.10;99.90;;;;;;4928522;29;20024;-54
2022/06/20 01:20:32;;;;;;;10.32;3.35;;;21.10;99.90;;;;;;4931068;29;20063;-55
2022/06/20 01:23:13;;;;;;;10.50;2.97;;;21.20;99.90;;;;;;4930354;29;20062;-52
2022/06/20 01:26:17;;;;;;;8.95;3.33;;;21.00;99.90;;;;;;4918293;29;20383;-54
2022/06/20 01:28:46;;;;;;;13.90;3.20;;;20.80;99.90;;;;;;4986753;28;20101;-55
2022/06/20 01:31:14;;;;;;;11.52;3.28;;;20.90;99.90;;;;;;4981348;28;20027;-55
2022/06/20 01:33:40;;;;;;;9.05;3.33;;;21.00;99.90;;;;;;4981205;28;20027;-55
2022/06/20 01:38:55;;;;;;;9.63;3.08;;;21.10;99.90;;;;;;4988122;28;20053;-54
2022/06/20 01:44:05;;;;;;;9.40;3.10;;;20.90;99.90;;;;;;4991488;28;20547;-55
2022/06/20 01:46:34;;;;;;;10.13;3.10;;;20.80;99.90;;;;;;4979025;28;20412;-55
2022/06/20 01:49:14;;;;;;;10.23;3.10;;;20.70;99.90;;;;;;4986034;28;20042;-55
2022/06/20 01:51:51;;;;;;;12.63;3.30;;;20.80;99.90;;;;;;4987439;28;20063;-52
2022/06/20 01:54:18;;;;;;;10.15;2.95;;;20.60;99.90;;;;;;4986935;28;20109;-53
2022/06/20 01:56:47;;;;;;;11.00;3.05;;;20.60;99.90;;;;;;4988223;28;20472;-54
2022/06/20 01:59:27;;;;;;;9.75;2.88;;;20.50;99.90;;;;;;4991737;28;20040;-55
2022/06/20 02:01:54;;;;;;;10.60;3.33;;;20.30;99.90;;;;;;4989245;28;20022;-53
2022/06/20 02:04:24;;;;;;;10.30;3.20;;;20.60;99.90;;;;;;4988003;28;20033;-55
2022/06/20 02:06:51;;;;;;;9.45;3.10;;;20.50;99.90;;;;;;4987357;28;20109;-52
2022/06/20 02:09:17;;;;;;;10.25;3.10;;;21.10;99.90;;;;;;4987523;28;20067;-55
2022/06/20 02:11:45;;;;;;;8.82;2.75;;;21.00;99.90;;;;;;4991799;28;20096;-53
2022/06/20 02:14:22;;;;;;;11.32;3.08;;;21.30;99.90;;;;;;4976202;28;20045;-55
2022/06/20 02:16:54;;;;;;;10.13;3.22;;;21.10;99.90;;;;;;4988435;28;20027;-55
2022/06/20 02:19:34;;;;;;;7.90;2.87;;;21.30;99.90;;;;;;4987295;28;20069;-55
2022/06/20 02:22:04;;;;;;;10.48;3.10;;;20.90;99.90;;;;;;4987655;28;20022;-49
2022/06/20 02:24:36;;;;;;;8.73;2.80;;;21.00;99.90;;;;;;4985974;28;20033;-55
2022/06/20 02:27:05;;;;;;;10.05;3.00;;;21.20;99.90;;;;;;4980539;28;20133;-53
2022/06/20 02:29:32;;;;;;;11.30;3.03;;;21.00;99.90;;;;;;4978891;28;20049;-54
2022/06/20 02:32:12;;;;;;;9.40;2.80;;;20.90;99.90;;;;;;4976251;28;20093;-55
2022/06/20 02:34:38;;;;;;;11.63;2.88;;;20.70;99.90;;;;;;4977371;28;20039;-55
2022/06/20 02:37:09;;;;;;;9.45;2.70;;;20.50;99.90;;;;;;4980743;28;20046;-55
2022/06/20 02:39:38;;;;;;;10.32;2.88;;;21.00;99.90;;;;;;4979602;28;20106;-55
2022/06/20 02:42:19;;;;;;;11.73;2.55;;;20.60;99.90;;;;;;4986411;28;20069;-55
2022/06/20 02:44:48;;;;;;;12.27;2.95;;;20.50;99.90;;;;;;4987785;28;20019;-54
2022/06/20 02:47:16;;;;;;;12.68;2.67;;;20.40;99.90;;;;;;4976425;28;20034;-54
2022/06/20 02:49:43;;;;;;;10.77;2.72;;;20.40;99.90;;;;;;4988001;28;20153;-53
2022/06/20 02:52:15;;;;;;;10.88;2.75;;;20.60;99.90;;;;;;4980456;28;20062;-52
2022/06/20 02:54:41;;;;;;;10.52;2.70;;;20.70;99.90;;;;;;4980677;28;20561;-53
2022/06/20 02:57:12;;;;;;;14.18;3.10;;;20.50;99.90;;;;;;4980412;28;20057;-54
2022/06/20 02:59:46;;;;;;;11.75;2.90;;;20.10;99.90;;;;;;4979565;28;20088;-55
2022/06/20 03:02:14;;;;;;;9.55;2.75;;;20.80;99.90;;;;;;4975991;28;20561;-52
2022/06/20 03:04:42;;;;;;;11.35;3.08;;;20.90;99.90;;;;;;4977051;28;20027;-54
2022/06/20 03:07:20;;;;;;;9.30;2.67;;;20.90;99.90;;;;;;4989771;28;20022;-52
2022/06/20 03:09:49;;;;;;;10.35;2.92;;;20.70;99.90;;;;;;4990466;28;20117;-54
2022/06/20 03:12:15;;;;;;;10.38;2.70;;;20.80;99.90;;;;;;4990899;28;20419;-54
2022/06/20 03:14:46;;;;;;;15.43;3.30;;;20.50;99.90;;;;;;4991666;28;20034;-55
2022/06/20 03:17:14;;;;;;;11.98;2.75;;;20.20;99.90;;;;;;4994496;28;20026;-55
2022/06/20 03:19:44;;;;;;;14.05;2.97;;;20.70;99.90;;;;;;4990940;28;20038;-55
2022/06/20 03:22:14;;;;;;;11.18;2.78;;;20.60;99.90;;;;;;4983498;28;20027;-53
2022/06/20 03:24:42;;;;;;;14.48;3.28;;;20.50;99.90;;;;;;4983761;28;20130;-55
2022/06/20 03:27:13;;;;;;;10.52;3.05;;;20.00;99.90;;;;;;4983735;28;20039;-53
2022/06/20 03:29:43;;;;;;;10.25;2.70;;;20.30;99.90;;;;;;4982322;28;20664;-55
2022/06/20 03:32:09;;;;;;;17.58;3.03;;;20.50;99.90;;;;;;4979297;28;20030;-55
2022/06/20 03:34:35;;;;;;;11.20;2.83;;;20.20;99.90;;;;;;4980952;28;20042;-54
2022/06/20 03:37:02;;;;;;;13.77;2.90;;;19.80;99.90;;;;;;4983093;28;20027;-53
2022/06/20 03:39:29;;;;;;;10.52;2.50;;;20.20;99.90;;;;;;4983405;28;20124;-55
2022/06/20 03:41:56;;;;;;;13.48;2.65;;;20.00;99.90;;;;;;4983618;28;20118;-54
2022/06/20 03:44:35;;;;;;;9.80;2.80;;;19.90;99.90;;;;;;4979129;28;20377;-55
2022/06/20 03:47:08;;;;;;;9.05;2.63;;;19.80;99.90;;;;;;4992798;28;20023;-56
2022/06/20 03:49:43;;;;;;;10.77;2.60;;;20.30;99.90;;;;;;4990768;28;20038;-56
2022/06/20 03:52:49;;;;;;;10.13;2.58;;;20.20;99.90;;;;;;4989370;28;20689;-52
2022/06/20 03:55:27;;;;;;;11.32;2.83;;;20.60;99.90;;;;;;4982391;28;20058;-55
2022/06/20 03:57:59;;;;;;;22.13;4.70;;;20.80;99.90;;;;;;4983250;28;20392;-54
2022/06/20 04:00:45;;;;;;;16.27;3.17;;;20.10;99.90;;;;;;4983117;28;20034;-54
2022/06/20 04:03:39;;;;;;;11.73;3.72;;;19.60;99.90;;;;;;4983087;28;20019;-55
2022/06/20 04:06:13;;;;;;;14.10;3.70;;;19.40;99.90;;;;;;4979751;28;20521;-56
2022/06/20 04:11:30;;;;;;;11.77;2.97;;;19.00;99.90;;;;;;4979001;28;20465;-56
2022/06/20 04:14:03;;;;;;;13.07;3.28;;;19.30;99.90;;;;;;4992005;28;20042;-55
2022/06/20 04:16:41;;;;;;;13.95;3.22;;;19.30;99.90;;;;;;4978954;28;20027;-52
2022/06/20 04:19:24;;;;;;;11.30;3.15;;;18.90;99.90;;;;;;4982235;28;20035;-55
2022/06/20 04:22:01;;;;;;;13.30;2.95;;;18.70;99.90;;;;;;4982895;28;20458;-50
2022/06/20 04:24:38;;;;;;;12.10;3.35;;;18.60;99.90;;;;;;4982670;28;20085;-55
2022/06/20 04:27:11;;;;;;;11.52;2.97;;;18.40;99.90;;;;;;4982614;28;20577;-52
2022/06/20 04:29:46;;;;;;;11.88;3.28;;;18.30;99.90;;;;;;4981040;28;20047;-54
2022/06/20 04:32:32;;;;;;;11.98;3.00;;;18.60;99.90;;;;;;4977905;28;20030;-55
2022/06/20 04:35:16;;;;;;;11.38;3.10;;;19.10;99.90;;;;;;4991456;28;20034;-55
2022/06/20 04:37:48;;;;;;;;;;;19.20;99.90;;;;;;4989289;28;20035;-55
2022/06/20 04:40:33;;;;;;;8.63;2.60;;;19.50;99.90;;;;;;4988297;28;19976;-55
2022/06/20 04:43:19;;;;;;;8.40;2.75;;;19.30;99.90;;;;;;4988598;28;20038;-55
2022/06/20 04:46:05;;;;;;;8.77;2.70;;;19.80;99.90;;;;;;4988853;28;20047;-56
2022/06/20 04:48:31;;;;;;;6.47;2.38;;;20.30;99.90;;;;;;4987012;28;20149;-56
2022/06/20 04:51:02;;;;;;;9.95;2.92;;;21.00;99.90;;;;;;4982187;28;20050;-55
2022/06/20 04:53:33;;;;;;;9.93;2.78;;;21.10;99.90;;;;;;4979524;28;20554;-52
2022/06/20 04:56:04;;;;;;;12.65;3.35;;;20.50;99.90;;;;;;4977818;28;20047;-56
2022/06/20 04:58:39;;;;;;;6.43;2.42;;;19.40;99.90;;;;;;4978335;28;20440;-55
2022/06/20 05:01:07;;;;;;;11.70;2.95;;;19.00;99.90;;;;;;4982035;28;20023;-55
2022/06/20 05:03:44;;;;;;;10.38;2.63;;;19.90;99.90;;;;;;4981355;28;20097;-55
2022/06/20 05:06:32;;;;;;;9.10;3.00;;;20.80;99.90;;;;;;4981841;28;20026;-56
2022/06/20 05:09:25;;;;;;;8.80;2.83;;;21.20;99.90;;;;;;4981490;28;20100;-56
2022/06/20 05:12:05;;;;;;;10.27;3.10;;;21.00;99.90;;;;;;4982032;28;20101;-55
2022/06/20 05:14:43;;;;;;;7.43;2.67;;;19.50;99.90;;;;;;4979267;28;20026;-56
2022/06/20 05:17:20;;;;;;;8.00;2.67;;;19.10;99.90;;;;;;4976807;28;20423;-56
2022/06/20 05:19:49;;;;;;;7.28;2.42;;;19.10;99.90;;;;;;4989735;28;20053;-56
2022/06/20 05:22:26;;;;;;;7.72;2.60;;;19.40;99.90;;;;;;4981007;28;20027;-53
2022/06/20 05:24:54;;;;;;;10.75;2.88;;;19.50;99.90;;;;;;4981349;28;20050;-56
2022/06/20 05:27:25;;;;;;;7.35;2.72;;;19.50;99.90;;;;;;4981529;28;20071;-56
2022/06/20 05:29:54;;;;;;;7.18;2.40;;;19.30;99.90;;;;;;4981501;28;20057;-55
2022/06/20 05:32:32;;;;;;;9.77;2.85;;;19.90;99.90;;;;;;4977275;28;20395;-55
2022/06/20 05:35:22;;;;;;;9.05;3.47;;;19.60;99.90;;;;;;4976828;28;20070;-55
2022/06/20 05:37:52;;;;;;;10.82;2.88;;;19.10;99.90;;;;;;4989234;28;20110;-55
2022/06/20 05:40:36;;;;;;;8.40;2.70;;;18.80;99.90;;;;;;4980623;28;20178;-55
2022/06/20 05:43:04;;;;;;;5.13;2.20;;;19.70;99.90;;;;;;4986574;28;20106;-56
2022/06/20 05:45:30;;;;;;;9.25;2.90;;;20.60;99.90;;;;;;4987866;28;20062;-55
2022/06/20 05:48:00;;;;;;;9.15;2.70;;;20.10;99.90;;;;;;4987660;28;20120;-55
2022/06/20 05:50:37;;;;;;;8.43;3.00;;;20.00;99.90;;;;;;4990848;28;20085;-55
2022/06/20 05:53:06;;;;;;;8.27;2.75;;;19.60;99.90;;;;;;4990602;28;20053;-51
2022/06/20 05:55:43;;;;;;;6.93;2.58;;;19.30;99.90;;;;;;4988201;28;20407;-55
2022/06/20 05:58:22;;;;;;;10.05;3.28;;;19.90;99.90;;;;;;4987483;28;20037;-55
2022/06/20 06:00:52;;;;;;;5.93;2.42;;;19.70;99.90;;;;;;4987324;28;20031;-55
2022/06/20 06:03:28;;;;;;;8.48;2.97;;;19.40;99.90;;;;;;4987514;28;20411;-55
2022/06/20 06:06:07;;;;;;;7.25;2.67;;;20.60;99.90;;;;;;4987527;28;20476;-55
2022/06/20 06:08:37;;;;;;;9.02;2.80;;;20.80;99.90;;;;;;4989588;28;20035;-55
2022/06/20 06:11:17;;;;;;;6.88;3.00;;;21.10;99.90;;;;;;4990621;28;20504;-55
2022/06/20 06:13:48;;;;;;;7.95;2.70;;;21.00;99.90;;;;;;4988343;28;20026;-55
2022/06/20 06:19:21;;;;;;;10.75;2.80;;;20.60;99.90;;;;;;4981989;28;20041;-55
2022/06/20 06:21:48;;;;;;;8.35;2.90;;;21.30;99.90;;;;;;4980811;28;20117;-52
2022/06/20 06:24:17;;;;;;;9.52;3.05;;;21.40;99.90;;;;;;4981140;28;20039;-55
2022/06/20 06:26:46;;;;;;;8.13;2.75;;;20.70;99.90;;;;;;4980222;28;20053;-54
2022/06/20 06:29:20;;;;;;;8.93;3.17;;;20.20;99.90;;;;;;4976164;28;20035;-55
2022/06/20 06:31:49;;;;;;;9.60;3.03;;;19.50;99.90;;;;;;4988247;28;20026;-55
2022/06/20 06:35:06;;;;;;;9.27;2.78;;;19.60;99.90;;;;;;4980247;28;20526;-55
2022/06/20 06:37:47;;;;;;;8.52;2.60;;;19.80;99.90;;;;;;4949910;29;20617;-55
2022/06/20 06:40:25;;;;;;;8.57;2.45;;;20.30;99.90;;;;;;4949826;28;20055;-55
2022/06/20 06:42:54;;;;;;;6.22;2.80;;;20.40;99.90;;;;;;4953550;29;20094;-56
2022/06/20 06:45:23;;;;;;;8.23;2.83;;;20.50;99.90;;;;;;4951440;29;20035;-55
2022/06/20 06:47:59;;;;;;;8.80;2.80;;;20.40;99.90;;;;;;4953078;29;20058;-55
2022/06/20 06:50:45;;;;;;;8.13;2.90;;;20.40;99.90;;;;;;4953133;29;20027;-55
2022/06/20 06:53:39;;;;;;;9.40;3.28;;;20.00;99.90;;;;;;4953013;29;20039;-52
2022/06/20 06:56:21;;;;;;;11.48;3.13;;;19.30;99.90;;;;;;4953194;29;20051;-55
2022/06/20 06:58:55;;;;;;;11.05;3.58;;;19.40;99.90;;;;;;4954582;29;20142;-55
2022/06/20 07:01:26;;;;;;;7.63;3.30;;;19.60;99.90;;;;;;4954101;29;20050;-56
2022/06/20 07:04:04;;;;;;;7.75;2.88;;;19.50;99.90;;;;;;4952814;29;20026;-55
2022/06/20 07:06:40;;;;;;;6.68;2.65;;;19.90;99.90;;;;;;4953082;29;20046;-55
2022/06/20 07:09:16;;;;;;;8.63;3.25;;;20.20;99.90;;;;;;4952594;29;20078;-55
2022/06/20 07:12:16;;;;;;;7.10;2.60;;;20.00;99.90;;;;;;4952562;29;20082;-55
2022/06/20 07:14:45;;;;;;;9.00;2.80;;;20.20;99.90;;;;;;4900864;29;20161;-55
2022/06/20 07:17:24;;;;;;;11.60;3.20;;;21.00;99.90;;;;;;4915351;29;20398;-55
2022/06/20 07:19:51;;;;;;;9.50;2.90;;;20.90;99.90;;;;;;4912996;29;20044;-56
2022/06/20 07:22:20;;;;;;;8.35;2.90;;;20.90;99.90;;;;;;4912300;29;20516;-53
2022/06/20 07:24:47;;;;;;;7.95;3.28;;;22.20;99.90;;;;;;4911213;29;20036;-55
2022/06/20 07:27:30;;;;;;;8.63;3.50;;;21.70;99.90;;;;;;4911383;29;20036;-55
2022/06/20 07:30:12;;;;;;;11.17;5.50;;;21.40;99.90;;;;;;4911500;29;20104;-55
2022/06/20 07:32:42;;;;;;;11.63;4.07;;;20.10;99.90;;;;;;4913205;29;20040;-55
2022/06/20 07:35:19;;;;;;;11.40;4.45;;;19.90;99.90;;;;;;4914745;29;20067;-56
2022/06/20 07:37:56;;;;;;;7.97;2.85;;;20.10;99.90;;;;;;4912114;29;20047;-56
2022/06/20 07:40:29;;;;;;;12.35;7.63;;;20.80;99.90;;;;;;4903367;29;20088;-55
2022/06/20 07:42:58;;;;;;;10.98;3.42;;;21.50;99.90;;;;;;4904248;29;20067;-50
2022/06/20 07:45:41;;;;;;;8.55;2.90;;;20.60;99.90;;;;;;4904675;29;20048;-56
2022/06/20 07:48:37;;;;;;;8.65;2.92;;;20.90;99.90;;;;;;4905041;29;20036;-56
2022/06/20 07:51:23;;;;;;;9.68;3.17;;;21.50;99.90;;;;;;4934425;28;20510;-55
2022/06/20 07:54:02;;;;;;;7.47;2.90;;;21.30;99.90;;;;;;4982499;28;20149;-53
2022/06/20 07:56:45;;;;;;;9.43;3.05;;;21.20;99.90;;;;;;4978667;28;20078;-56
2022/06/20 07:59:23;;;;;;;10.40;3.10;;;21.50;99.90;;;;;;4993931;28;20097;-55
2022/06/20 08:01:52;;;;;;;10.18;2.92;;;21.30;99.90;;;;;;4991005;28;20030;-55
2022/06/20 08:04:28;;;;;;;7.45;3.33;;;22.00;99.90;;;;;;4982798;28;20129;-55
2022/06/20 08:07:06;;;;;;;10.43;3.00;;;21.40;99.90;;;;;;4983264;28;20462;-53
2022/06/20 08:09:40;;;;;;;11.30;2.40;;;21.50;99.90;;;;;;4983317;28;20133;-52
2022/06/20 08:12:20;;;;;;;11.10;3.05;;;21.50;99.90;;;;;;4982934;28;20096;-55
2022/06/20 08:14:53;;;;;;;9.38;2.80;;;20.60;99.90;;;;;;4982295;28;20034;-56
2022/06/20 08:17:19;;;;;;;9.73;3.30;;;20.40;99.90;;;;;;4978761;28;20112;-56
2022/06/20 08:19:45;;;;;;;9.80;3.15;;;20.30;99.90;;;;;;4990464;28;20336;-55
2022/06/20 08:22:17;;;;;;;12.57;3.42;;;20.40;99.90;;;;;;4989263;28;20487;-56
2022/06/20 08:25:09;;;;;;;10.40;3.25;;;21.30;99.90;;;;;;4989213;28;20113;-52
2022/06/20 08:27:49;;;;;;;9.40;2.55;;;20.70;99.90;;;;;;4981977;28;20495;-55
2022/06/20 08:30:43;;;;;;;12.43;3.00;;;21.50;99.90;;;;;;4989161;28;20026;-55
2022/06/20 08:33:18;;;;;;;14.27;3.10;;;22.50;99.90;;;;;;4929009;29;20036;-56
2022/06/20 08:36:11;;;;;;;13.48;2.88;;;23.30;99.90;;;;;;4929558;29;20123;-56
2022/06/20 08:38:44;;;;;;;10.27;2.88;;;22.60;99.90;;;;;;4921816;29;20036;-56
2022/06/20 08:41:28;;;;;;;9.63;2.85;;;21.50;99.90;;;;;;4922941;29;20043;-56
2022/06/20 08:44:18;;;;;;;10.10;3.00;;;20.80;99.90;;;;;;4923769;29;20047;-56
2022/06/20 08:47:01;;;;;;;9.43;2.55;;;20.60;99.90;;;;;;4924502;29;20409;-56
2022/06/20 08:50:01;;;;;;;10.70;2.85;;;20.30;99.90;;;;;;4927483;29;20050;-55
2022/06/20 08:52:53;;;;;;;10.93;3.38;;;20.40;99.90;;;;;;4920701;29;20044;-56
2022/06/20 08:55:35;;;;;;;11.55;3.25;;;20.80;99.90;;;;;;4932975;29;20492;-56
2022/06/20 08:58:10;;;;;;;12.93;3.05;;;20.70;99.90;;;;;;4929054;29;20047;-56
2022/06/20 09:01:15;;;;;;;10.13;3.28;;;21.70;99.90;;;;;;4928561;29;20181;-56
2022/06/20 09:03:52;;;;;;;8.40;2.88;;;20.70;99.90;;;;;;4866831;29;20415;-56
2022/06/20 09:06:33;;;;;;;11.45;3.40;;;21.40;99.90;;;;;;4867246;29;20551;-56
2022/06/20 09:09:10;;;;;;;10.65;3.05;;;21.20;99.90;;;;;;4875053;29;20601;-56
2022/06/20 09:12:13;;;;;;;10.75;3.13;;;21.50;99.90;;;;;;4943031;29;20039;-55
2022/06/20 09:15:15;;;;;;;11.18;3.10;;;23.10;99.90;;;;;;4941219;29;20044;-56
2022/06/20 09:18:15;;;;;;;8.73;3.10;;;24.10;99.90;;;;;;4940568;29;20051;-56
2022/06/20 09:20:56;;;;;;;10.85;3.53;;;23.70;99.90;;;;;;4942943;29;20498;-56
2022/06/20 09:23:36;;;;;;;9.23;3.38;;;24.00;99.90;;;;;;4945377;29;20034;-56
2022/06/20 09:26:37;;;;;;;7.80;2.95;;;23.60;99.90;;;;;;4943009;29;20444;-56
2022/06/20 09:29:28;;;;;;;11.70;3.58;;;23.80;99.90;;;;;;4936092;29;20071;-56
2022/06/20 09:33:01;;;;;;;9.23;3.33;;;23.90;99.90;;;;;;4945567;28;20050;-56
2022/06/20 09:35:51;;;;;;;10.18;3.60;;;24.10;99.90;;;;;;4912080;29;20087;-56
2022/06/20 09:38:35;;;;;;;8.95;3.25;;;25.00;99.90;;;;;;4884039;29;20462;-56
2022/06/20 09:41:06;;;;;;;8.68;2.90;;;25.40;99.90;;;;;;4877710;29;20051;-56
2022/06/20 09:43:46;;;;;;;9.82;3.22;;;27.20;99.90;;;;;;4889464;29;20039;-57
2022/06/20 09:46:45;;;;;;;7.88;3.15;;;27.40;99.90;;;;;;4889924;29;20536;-56
2022/06/20 09:49:31;;;;;;;8.35;3.15;;;25.30;99.90;;;;;;4889931;29;20036;-56
2022/06/20 09:52:18;;;;;;;9.80;3.35;;;26.30;99.90;;;;;;4890555;29;20086;-56
2022/06/20 09:54:58;;;;;;;7.82;2.90;;;27.30;99.90;;;;;;4889608;29;20036;-57
2022/06/20 09:57:34;;;;;;;8.32;2.95;;;27.90;99.90;;;;;;4889957;29;20148;-56
2022/06/20 10:00:41;;;;;;;9.15;3.47;;;28.50;99.90;;;;;;4889433;29;20033;-56
2022/06/20 10:03:44;;;;;;;7.95;2.83;;;27.80;99.90;;;;;;4862628;29;20029;-57
2022/06/20 10:06:28;;;;;;;9.50;3.40;;;26.80;99.90;;;;;;4893944;29;20095;-57
2022/06/20 10:09:14;;;;;;;8.95;3.08;;;26.70;99.90;;;;;;4906301;29;20051;-56
2022/06/20 10:12:04;;;;;;;11.07;3.40;;;26.30;99.90;;;;;;4900828;29;20036;-57
2022/06/20 10:14:54;;;;;;;6.30;2.80;;;27.10;99.90;;;;;;4902816;29;20059;-56
2022/06/20 10:17:37;;;;;;;10.75;3.63;;;28.10;99.90;;;;;;4898185;29;20060;-57
2022/06/20 10:20:16;;;;;;;8.32;3.25;;;28.00;99.90;;;;;;4904550;29;20039;-57
2022/06/20 10:23:05;;;;;;;9.02;3.30;;;27.00;99.90;;;;;;4901465;29;20033;-57
2022/06/20 10:25:44;;;;;;;9.27;3.35;;;27.30;99.90;;;;;;4903528;29;20028;-57
2022/06/20 10:28:22;;;;;;;6.82;3.10;;;27.10;99.90;;;;;;4906087;29;20383;-57
2022/06/20 10:30:47;;;;;;;7.85;3.15;;;28.30;99.90;;;;;;4905294;29;20052;-56
2022/06/20 10:33:34;;;;;;;7.32;2.78;;;28.90;99.90;;;;;;4904762;29;20413;-57
2022/06/20 10:36:28;;;;;;;9.15;3.13;;;29.00;99.90;;;;;;4905943;28;20059;-56
2022/06/20 10:39:02;;;;;;;7.95;3.20;;;28.80;99.90;;;;;;4985847;28;20045;-57
2022/06/20 10:41:48;;;;;;;9.05;3.33;;;28.40;99.90;;;;;;4974593;28;20030;-57
2022/06/20 10:44:14;;;;;;;6.82;3.22;;;26.40;99.90;;;;;;4981127;28;20116;-57
2022/06/20 10:46:55;;;;;;;10.13;3.30;;;26.20;99.90;;;;;;4985892;28;20027;-57
2022/06/20 10:50:10;;;;;;;9.27;3.28;;;27.10;99.90;;;;;;4979082;28;20042;-57
2022/06/20 10:52:49;;;;;;;8.23;3.00;;;28.30;99.90;;;;;;4904103;29;20047;-57
2022/06/20 10:55:34;;;;;;;6.55;2.97;;;27.70;99.90;;;;;;4926220;29;20397;-57
2022/06/20 10:58:35;;;;;;;6.88;2.90;;;28.10;99.90;;;;;;4929179;29;20035;-57
2022/06/20 11:01:11;;;;;;;8.50;3.33;;;28.30;99.90;;;;;;4873951;29;20033;-57
2022/06/20 11:04:04;;;;;;;7.15;2.80;;;28.30;99.90;;;;;;4872490;29;20073;-58
2022/06/20 11:06:54;;;;;;;8.10;3.15;;;27.60;99.90;;;;;;4874380;29;20052;-57
2022/06/20 11:09:35;;;;;;;7.70;3.30;;;28.40;99.90;;;;;;4873719;29;20130;-57
2022/06/20 11:12:15;;;;;;;9.75;3.20;;;27.40;99.90;;;;;;4874889;29;20033;-57
2022/06/20 11:14:52;;;;;;;7.38;3.22;;;28.70;99.90;;;;;;4874752;29;20037;-58
2022/06/20 11:17:47;;;;;;;7.03;2.90;;;28.90;99.90;;;;;;4860053;29;20060;-57
2022/06/20 11:20:19;;;;;;;6.40;3.10;;;28.90;99.90;;;;;;4873574;29;20055;-57
2022/06/20 11:23:06;;;;;;;6.93;3.10;;;28.70;99.90;;;;;;4871147;29;20400;-57
2022/06/20 11:25:47;;;;;;;7.05;2.88;;;28.60;99.90;;;;;;4869516;29;20095;-57
2022/06/20 11:28:24;;;;;;;6.97;2.80;;;28.90;99.90;;;;;;4876480;29;20095;-57
2022/06/20 11:31:05;;;;;;;8.18;3.00;;;28.90;99.90;;;;;;4912448;29;20048;-57
2022/06/20 11:34:02;;;;;;;5.10;2.40;;;28.40;99.90;;;;;;4915878;29;20040;-58
2022/06/20 11:36:54;;;;;;;5.80;2.60;;;29.00;99.90;;;;;;4900596;29;20443;-57
2022/06/20 11:39:23;;;;;;;10.65;2.88;;;27.50;99.90;;;;;;4982873;28;20037;-57
2022/06/20 11:41:55;;;;;;;6.65;2.78;;;27.80;99.90;;;;;;4989308;28;20179;-58
2022/06/20 11:44:36;;;;;;;5.55;2.72;;;27.40;99.90;;;;;;4979017;28;20027;-57
2022/06/20 11:47:19;;;;;;;8.68;3.00;;;28.80;99.90;;;;;;4989151;28;20027;-57
2022/06/20 11:50:17;;;;;;;6.93;2.80;;;28.60;99.90;;;;;;4979032;28;20047;-57
2022/06/20 11:53:16;;;;;;;5.22;2.60;;;27.20;99.90;;;;;;4984620;28;20278;-57
2022/06/20 11:55:53;;;;;;;5.82;2.80;;;27.90;99.90;;;;;;4994439;28;20112;-57
2022/06/20 11:58:28;;;;;;;7.35;2.80;;;27.80;99.90;;;;;;4981976;28;20515;-57
2022/06/20 12:01:03;;;;;;;7.43;2.78;;;28.30;99.90;;;;;;4977302;28;20102;-57
2022/06/20 12:03:55;;;;;;;6.78;2.97;;;28.30;99.90;;;;;;4980087;28;20404;-57
2022/06/20 12:06:41;;;;;;;5.85;2.67;;;27.90;99.90;;;;;;4982630;28;20424;-57
2022/06/20 12:09:15;;;;;;;10.70;2.83;;;26.90;99.90;;;;;;4982653;28;20058;-57
2022/06/20 12:12:16;;;;;;;5.72;2.60;;;26.60;99.90;;;;;;4980008;28;20093;-57
2022/06/20 12:15:19;;;;;;;6.47;2.83;;;27.10;99.90;;;;;;4882742;29;20045;-57
2022/06/20 12:18:07;;;;;;;5.47;2.67;;;27.30;99.90;;;;;;4895335;29;20129;-58
2022/06/20 12:23:31;;;;;;;5.63;2.65;;;28.30;99.90;;;;;;4881201;29;20777;-57
2022/06/20 12:26:05;;;;;;;7.38;2.88;;;28.50;99.90;;;;;;4894715;29;20028;-56
2022/06/20 12:28:39;;;;;;;6.78;2.85;;;27.40;99.90;;;;;;4894270;29;20040;-57
2022/06/20 12:31:21;;;;;;;6.07;3.05;;;27.20;99.90;;;;;;4895299;29;20655;-57
2022/06/20 12:33:52;;;;;;;8.35;2.83;;;26.70;99.90;;;;;;4894674;29;20078;-57
2022/06/20 12:36:26;;;;;;;5.20;2.42;;;27.70;99.90;;;;;;4894183;29;20092;-57
2022/06/20 12:39:10;;;;;;;6.38;2.45;;;27.60;99.90;;;;;;4894284;29;20068;-57
2022/06/20 12:41:43;;;;;;;6.43;2.60;;;27.50;99.90;;;;;;4895416;29;20040;-57
2022/06/20 12:44:27;;;;;;;5.55;2.60;;;27.50;99.90;;;;;;4895194;29;20041;-57
2022/06/20 12:47:17;;;;;;;6.30;3.08;;;27.60;99.90;;;;;;4890931;29;20068;-56
2022/06/20 12:50:08;;;;;;;7.57;2.50;;;28.00;99.90;;;;;;4914230;28;20494;-57
2022/06/20 12:53:04;;;;;;;5.72;2.50;;;28.20;99.90;;;;;;4978684;28;20404;-57
2022/06/20 12:55:30;;;;;;;7.40;2.70;;;27.50;99.90;;;;;;4978211;28;20055;-57
2022/06/20 12:58:26;;;;;;;7.63;2.95;;;27.50;99.90;;;;;;4981222;28;20037;-57
2022/06/20 13:00:57;;;;;;;9.05;2.70;;;28.30;99.90;;;;;;4985546;28;20113;-57
2022/06/20 13:03:45;;;;;;;7.20;2.63;;;28.70;99.90;;;;;;4988197;28;20495;-57
2022/06/20 13:06:18;;;;;;;7.68;2.60;;;28.60;99.90;;;;;;4990807;28;20488;-57
2022/06/20 13:09:21;;;;;;;5.68;2.40;;;29.00;99.90;;;;;;4982372;28;20062;-57
2022/06/20 13:12:05;;;;;;;6.90;2.60;;;28.80;99.90;;;;;;4985115;28;20081;-57
2022/06/20 13:14:57;;;;;;;;;;;28.10;99.90;;;;;;4977753;28;20030;-57
2022/06/20 13:17:28;;;;;;;5.50;2.67;;;28.30;99.90;;;;;;4972011;28;20231;-57
2022/06/20 13:20:19;;;;;;;6.72;2.60;;;28.10;99.90;;;;;;4992660;28;20084;-57
2022/06/20 13:23:03;;;;;;;5.90;2.90;;;28.10;99.90;;;;;;4978804;28;20031;-57
2022/06/20 13:25:44;;;;;;;7.03;2.80;;;28.70;99.90;;;;;;4977712;28;20058;-57
2022/06/20 13:28:25;;;;;;;8.25;2.80;;;28.20;99.90;;;;;;4980543;28;20050;-57
2022/06/20 13:31:03;;;;;;;5.97;2.78;;;28.60;99.90;;;;;;4980708;28;20041;-57
2022/06/20 13:33:31;;;;;;;6.05;2.60;;;29.00;99.90;;;;;;4981218;28;20041;-57
2022/06/20 13:36:02;;;;;;;7.63;2.70;;;29.00;99.90;;;;;;4981332;28;20387;-57
2022/06/20 13:38:51;;;;;;;8.95;2.65;;;29.10;99.90;;;;;;4981983;28;20068;-57
2022/06/20 13:41:17;;;;;;;8.02;2.65;;;28.70;99.90;;;;;;4983384;28;20072;-57
2022/06/20 13:44:22;;;;;;;6.22;2.50;;;28.50;99.90;;;;;;4984037;28;20129;-57
2022/06/20 13:46:53;;;;;;;5.03;2.42;;;27.80;99.90;;;;;;4928463;29;20481;-57
2022/06/20 13:49:53;;;;;;;6.30;2.88;;;27.50;99.90;;;;;;4930994;29;20119;-57
2022/06/20 13:52:30;;;;;;;6.30;2.50;;;27.40;99.90;;;;;;4891986;29;20058;-57
2022/06/20 13:54:58;;;;;;;5.88;2.75;;;28.70;99.90;;;;;;4890724;29;20509;-57